createdAt,value
2018-12-24T00:02:05.941Z,12.34
2018-12-24T00:04:32.089Z,12.50
2018-12-24T00:06:58.234Z,12.27
2018-12-24T00:09:24.415Z,12.43
2018-12-24T00:11:50.583Z,12.26
2018-12-24T00:14:17.077Z,12.47
2018-12-24T00:16:43.710Z,12.44
2018-12-24T00:19:09.903Z,12.35
2018-12-24T00:21:36.120Z,12.41
2018-12-24T00:24:03.017Z,12.25
2018-12-24T00:26:29.780Z,12.27
2018-12-24T00:28:56.005Z,12.21
2018-12-24T00:31:22.197Z,12.34
2018-12-24T00:33:48.339Z,12.34
2018-12-24T00:36:14.770Z,12.16
2018-12-24T00:38:41.483Z,12.38
2018-12-24T00:41:07.601Z,12.33
2018-12-24T00:43:33.805Z,12.20
2018-12-24T00:46:00.279Z,12.08
2018-12-24T00:48:26.443Z,12.04
2018-12-24T00:50:52.561Z,12.08
2018-12-24T00:53:19.086Z,12.12
2018-12-24T00:55:45.276Z,12.07
2018-12-24T00:58:11.859Z,12.28
2018-12-24T01:00:38.391Z,12.22
2018-12-24T01:03:04.491Z,12.13
2018-12-24T01:05:30.948Z,12.08
2018-12-24T01:07:57.367Z,12.10
2018-12-24T01:10:23.802Z,12.01
2018-12-24T01:12:50.240Z,12.03
2018-12-24T01:15:16.664Z,12.22
2018-12-24T01:17:43.133Z,12.20
2018-12-24T01:20:09.343Z,12.38
2018-12-24T01:22:35.882Z,12.12
2018-12-24T01:25:02.015Z,12.11
2018-12-24T01:27:28.194Z,12.26
2018-12-24T01:29:54.774Z,12.25
2018-12-24T01:32:21.291Z,12.58
2018-12-24T01:34:47.433Z,12.25
2018-12-24T01:37:13.968Z,12.14
2018-12-24T01:39:40.168Z,12.23
2018-12-24T01:42:06.724Z,12.52
2018-12-24T01:44:32.857Z,12.63
2018-12-24T01:46:59.308Z,12.47
2018-12-24T01:49:25.481Z,12.44
2018-12-24T01:51:52.053Z,12.26
2018-12-24T01:54:18.175Z,12.38
2018-12-24T01:56:44.370Z,12.52
2018-12-24T01:59:10.573Z,12.21
2018-12-24T02:01:36.778Z,12.32
2018-12-24T02:04:02.963Z,12.41
2018-12-24T02:06:29.525Z,12.40
2018-12-24T02:08:55.794Z,12.57
2018-12-24T02:11:21.947Z,12.46
2018-12-24T02:13:48.144Z,12.34
2018-12-24T02:16:14.276Z,12.28
2018-12-24T02:18:40.775Z,12.45
2018-12-24T02:21:06.931Z,12.49
2018-12-24T02:23:33.465Z,12.37
2018-12-24T02:25:59.990Z,12.42
2018-12-24T02:28:26.115Z,12.58
2018-12-24T02:30:52.647Z,12.47
2018-12-24T02:33:18.840Z,12.39
2018-12-24T02:35:45.306Z,12.26
2018-12-24T02:38:11.831Z,12.08
2018-12-24T02:40:38.367Z,11.87
2018-12-24T02:43:04.521Z,12.03
2018-12-24T02:45:31.025Z,12.31
2018-12-24T02:47:57.567Z,12.48
2018-12-24T02:50:24.095Z,12.57
2018-12-24T02:52:50.226Z,12.47
2018-12-24T02:55:16.344Z,12.19
2018-12-24T02:57:42.548Z,12.18
2018-12-24T03:00:08.737Z,12.27
2018-12-24T03:02:34.879Z,12.21
2018-12-24T03:05:01.084Z,12.16
2018-12-24T03:07:27.227Z,12.56
2018-12-24T03:09:53.341Z,12.79
2018-12-24T03:12:19.495Z,12.68
2018-12-24T03:14:45.686Z,12.37
2018-12-24T03:17:12.236Z,12.12
2018-12-24T03:19:39.205Z,11.96
2018-12-24T03:22:05.451Z,12.21
2018-12-24T03:24:31.593Z,12.15
2018-12-24T03:26:57.790Z,12.21
2018-12-24T03:29:23.911Z,12.31
2018-12-24T03:31:50.042Z,12.35
2018-12-24T03:34:16.651Z,12.26
2018-12-24T03:36:42.845Z,12.12
2018-12-24T03:39:09.309Z,12.12
2018-12-24T03:41:35.460Z,12.23
2018-12-24T03:44:02.068Z,12.30
2018-12-24T03:46:28.609Z,12.30
2018-12-24T03:48:54.848Z,12.52
2018-12-24T03:51:21.379Z,12.35
2018-12-24T03:53:47.952Z,12.24
2018-12-24T03:56:14.442Z,12.12
2018-12-24T03:58:40.574Z,12.22
2018-12-24T04:01:06.768Z,12.15
2018-12-24T04:03:32.918Z,12.26
2018-12-24T04:05:59.020Z,12.60
2018-12-24T04:08:25.179Z,12.56
2018-12-24T04:10:51.396Z,12.44
2018-12-24T04:13:22.356Z,12.42
2018-12-24T04:15:45.384Z,12.33
2018-12-24T04:18:11.589Z,12.28
2018-12-24T04:20:37.766Z,12.39
2018-12-24T04:23:04.191Z,12.18
2018-12-24T04:25:30.396Z,12.28
2018-12-24T04:27:56.523Z,12.33
2018-12-24T04:30:22.709Z,12.32
2018-12-24T04:32:48.895Z,12.29
2018-12-24T04:35:15.054Z,12.26
2018-12-24T04:37:41.760Z,12.39
2018-12-24T04:40:07.879Z,12.33
2018-12-24T04:42:33.995Z,12.08
2018-12-24T04:45:00.650Z,12.02
2018-12-24T04:47:26.848Z,12.01
2018-12-24T04:49:53.073Z,11.91
2018-12-24T04:52:19.277Z,12.08
2018-12-24T04:54:45.492Z,12.08
2018-12-24T04:57:11.990Z,12.16
2018-12-24T04:59:38.128Z,12.11
2018-12-24T05:02:04.547Z,12.16
2018-12-24T05:04:30.699Z,12.06
2018-12-24T05:06:56.905Z,11.83
2018-12-24T05:09:23.103Z,11.88
2018-12-24T05:11:49.988Z,11.90
2018-12-24T05:14:16.523Z,11.86
2018-12-24T05:16:42.730Z,11.73
2018-12-24T05:19:08.869Z,11.53
2018-12-24T05:21:35.058Z,11.55
2018-12-24T05:24:01.248Z,11.38
2018-12-24T05:26:27.459Z,11.35
2018-12-24T05:28:53.669Z,11.34
2018-12-24T05:31:20.122Z,11.25
2018-12-24T05:33:46.329Z,11.11
2018-12-24T05:36:12.558Z,11.10
2018-12-24T05:38:38.737Z,10.88
2018-12-24T05:41:05.241Z,10.87
2018-12-24T05:43:31.350Z,11.06
2018-12-24T05:45:57.791Z,11.16
2018-12-24T05:48:23.916Z,11.00
2018-12-24T05:50:50.141Z,10.97
2018-12-24T05:53:16.593Z,10.89
2018-12-24T05:55:42.848Z,10.76
2018-12-24T05:58:09.352Z,10.35
2018-12-24T06:00:35.618Z,10.59
2018-12-24T06:03:01.809Z,10.75
2018-12-24T06:05:28.249Z,11.15
2018-12-24T06:07:56.112Z,11.02
2018-12-24T06:10:22.548Z,10.84
2018-12-24T06:12:48.727Z,10.94
2018-12-24T06:15:15.203Z,10.99
2018-12-24T06:17:41.768Z,10.93
2018-12-24T06:20:08.273Z,10.90
2018-12-24T06:22:34.463Z,11.06
2018-12-24T06:25:00.643Z,10.91
2018-12-24T06:27:26.858Z,10.79
2018-12-24T06:29:53.014Z,10.75
2018-12-24T06:32:19.126Z,10.72
2018-12-24T06:34:45.244Z,10.93
2018-12-24T06:37:11.687Z,10.93
2018-12-24T06:39:38.224Z,10.87
2018-12-24T06:42:04.657Z,10.82
2018-12-24T06:44:31.293Z,10.77
2018-12-24T06:46:57.516Z,10.86
2018-12-24T06:49:23.690Z,10.77
2018-12-24T06:51:49.862Z,10.90
2018-12-24T06:54:16.419Z,10.97
2018-12-24T06:56:42.950Z,10.92
2018-12-24T06:59:09.157Z,10.99
2018-12-24T07:01:35.714Z,10.83
2018-12-24T07:04:03.258Z,10.73
2018-12-24T07:06:29.405Z,10.77
2018-12-24T07:08:55.535Z,10.99
2018-12-24T07:11:21.782Z,11.33
2018-12-24T07:13:47.979Z,11.20
2018-12-24T07:16:14.631Z,11.06
2018-12-24T07:18:40.756Z,10.96
2018-12-24T07:21:07.011Z,10.84
2018-12-24T07:23:33.533Z,10.76
2018-12-24T07:26:00.048Z,10.74
2018-12-24T07:28:26.205Z,10.81
2018-12-24T07:30:52.711Z,11.19
2018-12-24T07:33:18.937Z,11.20
2018-12-24T07:35:45.607Z,11.11
2018-12-24T07:38:11.840Z,11.26
2018-12-24T07:40:38.342Z,11.16
2018-12-24T07:43:04.612Z,11.11
2018-12-24T07:45:30.805Z,10.95
2018-12-24T07:47:57.020Z,10.90
2018-12-24T07:50:23.562Z,10.99
2018-12-24T07:52:49.744Z,11.14
2018-12-24T07:55:16.144Z,11.00
2018-12-24T08:00:14.779Z,10.97
2018-12-24T08:02:41.025Z,10.84
2018-12-24T08:05:07.222Z,10.73
2018-12-24T08:07:33.369Z,10.68
2018-12-24T08:09:59.962Z,10.73
2018-12-24T08:12:27.434Z,11.08
2018-12-24T08:15:22.902Z,11.14
2018-12-24T08:17:40.922Z,11.09
2018-12-24T08:20:07.082Z,11.03
2018-12-24T08:22:33.285Z,10.95
2018-12-24T08:25:01.926Z,10.96
2018-12-24T08:27:35.666Z,10.96
2018-12-24T08:30:02.235Z,10.80
2018-12-24T08:32:28.748Z,10.98
2018-12-24T08:34:55.252Z,10.72
2018-12-24T08:37:21.446Z,10.48
2018-12-24T08:39:47.857Z,10.65
2018-12-24T08:42:14.046Z,10.55
2018-12-24T08:44:41.942Z,10.40
2018-12-24T08:47:08.389Z,10.70
2018-12-24T08:49:35.065Z,10.75
2018-12-24T08:52:03.471Z,10.83
2018-12-24T08:54:34.097Z,10.67
2018-12-24T08:56:57.461Z,10.68
2018-12-24T08:59:23.750Z,11.11
2018-12-24T09:01:49.933Z,11.14
2018-12-24T09:04:18.150Z,11.14
2018-12-24T09:06:45.119Z,11.11
2018-12-24T09:09:11.495Z,10.81
2018-12-24T09:11:39.272Z,10.64
2018-12-24T09:14:05.918Z,10.80
2018-12-24T09:16:37.947Z,10.77
2018-12-24T09:19:02.590Z,11.30
2018-12-24T09:21:33.455Z,11.69
2018-12-24T09:24:03.057Z,11.68
2018-12-24T09:26:43.740Z,11.53
2018-12-24T09:29:12.805Z,11.35
2018-12-24T09:31:39.140Z,11.47
2018-12-24T09:34:05.470Z,11.55
2018-12-24T09:36:32.078Z,11.62
2018-12-24T09:38:58.753Z,11.35
2018-12-24T09:41:25.012Z,11.13
2018-12-24T09:43:53.600Z,11.23
2018-12-24T09:46:21.108Z,11.07
2018-12-24T09:48:50.152Z,11.15
2018-12-24T09:54:08.541Z,11.44
2018-12-24T09:56:34.841Z,11.51
2018-12-24T09:59:01.034Z,11.40
2018-12-24T10:01:27.267Z,11.50
2018-12-24T10:03:53.517Z,11.83
2018-12-24T10:06:19.925Z,11.68
2018-12-24T10:11:21.835Z,11.43
2018-12-24T10:13:48.318Z,11.33
2018-12-24T10:16:14.564Z,11.17
2018-12-24T10:18:40.802Z,11.11
2018-12-24T10:21:10.032Z,11.10
2018-12-24T10:23:36.231Z,11.21
2018-12-24T10:26:04.744Z,11.05
2018-12-24T10:28:33.442Z,11.21
2018-12-24T10:31:00.159Z,11.17
2018-12-24T10:33:30.303Z,11.60
2018-12-24T10:35:56.794Z,11.77
2018-12-24T10:38:23.019Z,11.86
2018-12-24T10:40:49.440Z,11.50
2018-12-24T10:43:15.619Z,11.45
2018-12-24T10:45:42.221Z,11.46
2018-12-24T10:48:08.703Z,11.52
2018-12-24T10:50:35.042Z,11.83
2018-12-24T10:53:01.721Z,11.80
2018-12-24T10:55:28.152Z,11.61
2018-12-24T10:57:54.358Z,11.64
2018-12-24T11:00:20.546Z,10.94
2018-12-24T11:02:46.813Z,11.26
2018-12-24T11:05:14.987Z,11.55
2018-12-24T11:07:41.163Z,11.49
2018-12-24T11:10:07.373Z,11.16
2018-12-24T11:12:33.566Z,11.17
2018-12-24T11:14:59.795Z,11.20
2018-12-24T11:17:26.049Z,11.33
2018-12-24T11:19:54.201Z,11.47
2018-12-24T11:22:20.621Z,11.45
2018-12-24T11:24:46.847Z,11.26
2018-12-24T11:27:13.189Z,11.07
2018-12-24T11:29:39.627Z,11.04
2018-12-24T11:32:06.121Z,10.90
2018-12-24T11:34:32.252Z,11.14
2018-12-24T11:36:59.127Z,11.22
2018-12-24T11:39:25.318Z,11.38
2018-12-24T11:41:51.538Z,11.17
2018-12-24T11:44:17.721Z,11.15
2018-12-24T11:46:43.969Z,11.07
2018-12-24T11:49:10.507Z,11.68
2018-12-24T11:51:36.806Z,11.18
2018-12-24T11:54:03.311Z,11.16
2018-12-24T11:56:29.834Z,11.53
2018-12-24T11:58:56.028Z,11.35
2018-12-24T12:01:22.501Z,10.94
2018-12-24T12:03:48.640Z,10.79
2018-12-24T12:06:55.553Z,11.01
2018-12-24T12:09:21.606Z,10.99
2018-12-24T12:11:47.985Z,11.07
2018-12-24T12:14:14.081Z,11.14
2018-12-24T12:16:40.482Z,11.18
2018-12-24T12:19:06.573Z,11.12
2018-12-24T12:21:32.965Z,11.00
2018-12-24T12:23:59.325Z,11.09
2018-12-24T12:26:26.345Z,10.93
2018-12-24T12:28:52.502Z,11.31
2018-12-24T12:31:18.611Z,11.60
2018-12-24T12:33:44.672Z,11.24
2018-12-24T12:36:11.270Z,10.67
2018-12-24T12:38:37.705Z,10.46
2018-12-24T12:41:03.800Z,10.29
2018-12-24T12:43:30.344Z,10.24
2018-12-24T12:45:56.432Z,10.46
2018-12-24T12:48:22.779Z,10.44
2018-12-24T12:50:48.796Z,10.39
2018-12-24T12:53:14.978Z,10.11
2018-12-24T12:55:41.319Z,10.09
2018-12-24T12:58:07.737Z,10.12
2018-12-24T13:00:34.030Z,10.15
2018-12-24T13:03:00.352Z,10.10
2018-12-24T13:05:26.453Z,10.35
2018-12-24T13:07:52.549Z,10.45
2018-12-24T13:10:21.152Z,10.38
2018-12-24T13:12:47.578Z,10.49
2018-12-24T13:15:13.937Z,10.20
2018-12-24T13:17:40.134Z,10.07
2018-12-24T13:20:06.234Z,10.28
2018-12-24T13:22:32.346Z,9.94
2018-12-24T13:25:03.593Z,10.14
2018-12-24T13:27:29.966Z,9.94
2018-12-24T13:29:56.073Z,9.82
2018-12-24T13:32:22.663Z,9.69
2018-12-24T13:34:48.733Z,9.62
2018-12-24T13:37:16.105Z,9.77
2018-12-24T13:39:44.330Z,9.81
2018-12-24T13:42:12.769Z,9.65
2018-12-24T13:44:38.803Z,9.87
2018-12-24T13:47:06.854Z,9.84
2018-12-24T13:49:32.862Z,9.84
2018-12-24T13:52:00.601Z,9.80
2018-12-24T13:54:33.753Z,9.84
2018-12-24T13:57:01.439Z,9.86
2018-12-24T13:59:27.582Z,9.80
2018-12-24T14:01:55.780Z,9.89
2018-12-24T14:04:21.969Z,9.83
2018-12-24T14:06:48.910Z,9.51
2018-12-24T14:09:15.092Z,9.54
2018-12-24T14:11:41.175Z,9.77
2018-12-24T14:14:08.949Z,9.76
2018-12-24T14:16:36.519Z,9.76
2018-12-24T14:19:04.039Z,9.71
2018-12-24T14:21:30.428Z,9.72
2018-12-24T14:23:57.795Z,9.63
2018-12-24T14:26:24.170Z,9.76
2018-12-24T14:28:54.408Z,9.96
2018-12-24T14:31:19.177Z,10.05
2018-12-24T14:33:51.947Z,9.77
2018-12-24T14:36:13.527Z,9.97
2018-12-24T14:38:41.112Z,9.81
2018-12-24T14:41:07.680Z,9.94
2018-12-24T14:43:34.125Z,10.06
2018-12-24T14:46:00.341Z,9.91
2018-12-24T14:48:26.758Z,10.26
2018-12-24T14:50:53.219Z,10.22
2018-12-24T14:53:19.979Z,9.97
2018-12-24T14:55:46.411Z,9.80
2018-12-24T14:58:14.868Z,10.10
2018-12-24T15:00:42.807Z,10.09
2018-12-24T15:03:09.042Z,10.34
2018-12-24T15:05:36.451Z,10.42
2018-12-24T15:08:02.673Z,10.22
2018-12-24T15:10:29.050Z,10.25
2018-12-24T15:12:56.321Z,10.25
2018-12-24T15:15:22.502Z,10.13
2018-12-24T15:17:49.766Z,10.04
2018-12-24T15:20:15.898Z,9.85
2018-12-24T15:22:42.317Z,9.95
2018-12-24T15:25:08.425Z,9.76
2018-12-24T15:27:34.943Z,9.50
2018-12-24T15:30:01.377Z,9.24
2018-12-24T15:32:32.263Z,9.82
2018-12-24T15:34:55.278Z,9.68
2018-12-24T15:37:21.435Z,9.52
2018-12-24T15:39:47.656Z,9.49
2018-12-24T15:42:15.156Z,9.47
2018-12-24T15:44:41.530Z,9.43
2018-12-24T15:47:07.919Z,9.35
2018-12-24T15:49:34.348Z,9.25
2018-12-24T15:52:00.603Z,9.12
2018-12-24T15:54:27.043Z,9.44
2018-12-24T15:56:53.183Z,9.35
2018-12-24T15:59:20.156Z,9.38
2018-12-24T16:01:46.246Z,9.42
2018-12-24T16:04:12.739Z,9.30
2018-12-24T16:06:38.862Z,9.35
2018-12-24T16:09:04.989Z,9.52
2018-12-24T16:11:33.774Z,9.55
2018-12-24T16:14:00.009Z,9.56
2018-12-24T16:16:28.707Z,9.27
2018-12-24T16:18:55.129Z,9.35
2018-12-24T16:21:21.267Z,9.20
2018-12-24T16:23:47.690Z,9.66
2018-12-24T16:26:16.577Z,9.55
2018-12-24T16:28:43.020Z,9.37
2018-12-24T16:31:11.017Z,9.32
2018-12-24T16:33:37.347Z,9.41
2018-12-24T16:36:03.539Z,9.41
2018-12-24T16:38:29.869Z,9.56
2018-12-24T16:40:56.286Z,9.57
2018-12-24T16:43:22.366Z,9.42
2018-12-24T16:45:48.507Z,9.45
2018-12-24T16:48:15.007Z,9.50
2018-12-24T16:50:41.157Z,9.59
2018-12-24T16:53:07.554Z,9.73
2018-12-24T16:55:33.955Z,9.59
2018-12-24T16:58:00.123Z,9.62
2018-12-24T17:00:26.235Z,9.67
2018-12-24T17:02:52.421Z,9.45
2018-12-24T17:05:18.505Z,9.67
2018-12-24T17:07:44.584Z,9.61
2018-12-24T17:10:10.833Z,10.37
2018-12-24T17:12:37.307Z,10.20
2018-12-24T17:15:03.369Z,9.90
2018-12-24T17:17:29.473Z,9.59
2018-12-24T17:19:56.136Z,9.66
2018-12-24T17:22:23.387Z,9.60
2018-12-24T17:24:50.788Z,9.64
2018-12-24T17:27:18.931Z,9.61
2018-12-24T17:29:45.108Z,9.95
2018-12-24T17:32:14.297Z,9.91
2018-12-24T17:34:40.678Z,9.92
2018-12-24T17:37:07.955Z,9.74
2018-12-24T17:39:34.419Z,9.64
2018-12-24T17:42:00.749Z,9.58
2018-12-24T17:44:28.807Z,9.70
2018-12-24T17:46:54.862Z,9.57
2018-12-24T17:49:21.047Z,9.52
2018-12-24T17:51:47.222Z,9.55
2018-12-24T17:54:13.652Z,9.42
2018-12-24T17:56:40.065Z,9.48
2018-12-24T17:59:06.214Z,9.47
2018-12-24T18:01:32.315Z,9.46
2018-12-24T18:03:58.397Z,9.41
2018-12-24T18:06:24.749Z,9.43
2018-12-24T18:08:50.840Z,9.43
2018-12-24T18:11:16.856Z,9.41
2018-12-24T18:13:44.331Z,9.53
2018-12-24T18:16:10.438Z,9.51
2018-12-24T18:18:36.548Z,9.44
2018-12-24T18:21:03.449Z,9.43
2018-12-24T18:23:29.503Z,9.50
2018-12-24T18:25:55.891Z,9.45
2018-12-24T18:28:22.293Z,9.52
2018-12-24T18:30:48.702Z,9.45
2018-12-24T18:33:15.094Z,9.33
2018-12-24T18:35:41.241Z,9.39
2018-12-24T18:38:07.670Z,9.25
2018-12-24T18:40:36.940Z,9.33
2018-12-24T18:43:05.223Z,9.37
2018-12-24T18:45:31.105Z,9.20
2018-12-24T18:47:57.219Z,9.35
2018-12-24T18:50:23.664Z,9.46
2018-12-24T18:52:49.745Z,9.61
2018-12-24T18:55:17.869Z,9.56
2018-12-24T18:57:44.280Z,9.90
2018-12-24T19:00:10.669Z,9.55
2018-12-24T19:02:37.147Z,9.69
2018-12-24T19:05:03.286Z,9.75
2018-12-24T19:07:29.406Z,9.58
2018-12-24T19:09:55.570Z,9.48
2018-12-24T19:12:21.682Z,9.50
2018-12-24T19:14:47.934Z,9.44
2018-12-24T19:17:17.376Z,9.45
2018-12-24T19:19:45.232Z,9.47
2018-12-24T19:22:11.349Z,9.53
2018-12-24T19:24:37.435Z,9.48
2018-12-24T19:27:05.885Z,9.44
2018-12-24T19:29:31.956Z,9.60
2018-12-24T19:32:00.994Z,9.68
2018-12-24T19:34:27.439Z,9.58
2018-12-24T19:36:53.538Z,9.51
2018-12-24T19:39:19.883Z,9.46
2018-12-24T19:41:46.280Z,9.33
2018-12-24T19:44:12.641Z,9.43
2018-12-24T19:46:39.084Z,9.43
2018-12-24T19:49:05.160Z,9.44
2018-12-24T19:51:31.555Z,9.46
2018-12-24T19:54:04.966Z,9.31
2018-12-24T19:56:35.464Z,9.34
2018-12-24T19:59:00.889Z,9.37
2018-12-24T20:01:27.307Z,9.31
2018-12-24T20:03:53.362Z,9.51
2018-12-24T20:06:19.430Z,9.70
2018-12-24T20:08:45.525Z,9.62
2018-12-24T20:11:11.588Z,9.69
2018-12-24T20:13:38.875Z,9.60
2018-12-24T20:16:05.150Z,9.43
2018-12-24T20:18:31.514Z,9.52
2018-12-24T20:20:57.635Z,9.73
2018-12-24T20:23:23.963Z,9.67
2018-12-24T20:25:50.043Z,9.67
2018-12-24T20:28:16.160Z,9.71
2018-12-24T20:30:44.654Z,9.55
2018-12-24T20:33:10.792Z,9.44
2018-12-24T20:35:36.927Z,9.71
2018-12-24T20:38:03.354Z,9.56
2018-12-24T20:40:29.938Z,9.55
2018-12-24T20:42:58.929Z,9.73
2018-12-24T20:45:25.362Z,9.79
2018-12-24T20:48:06.494Z,9.71
2018-12-24T20:50:26.585Z,9.69
2018-12-24T20:52:52.637Z,9.82
2018-12-24T20:55:18.722Z,9.63
2018-12-24T20:57:45.111Z,9.56
2018-12-24T21:00:11.482Z,9.69
2018-12-24T21:02:37.631Z,9.61
2018-12-24T21:05:03.752Z,9.63
2018-12-24T21:07:35.713Z,9.58
2018-12-24T21:10:01.830Z,9.43
2018-12-24T21:12:28.305Z,9.54
2018-12-24T21:14:55.433Z,9.28
2018-12-24T21:17:24.633Z,9.56
2018-12-24T21:19:51.050Z,9.43
2018-12-24T21:22:17.335Z,9.44
2018-12-24T21:24:43.593Z,9.77
2018-12-24T21:27:09.682Z,9.82
2018-12-24T21:29:35.806Z,10.07
2018-12-24T21:32:02.173Z,9.85
2018-12-24T21:34:28.266Z,9.82
2018-12-24T21:36:57.619Z,9.74
2018-12-24T21:39:22.194Z,9.84
2018-12-24T21:41:50.813Z,9.82
2018-12-24T21:44:16.909Z,9.59
2018-12-24T21:46:43.327Z,9.66
2018-12-24T21:49:09.724Z,10.07
2018-12-24T21:51:36.128Z,9.91
2018-12-24T21:54:03.659Z,9.85
2018-12-24T21:56:30.048Z,9.82
2018-12-24T21:58:57.230Z,9.63
2018-12-24T22:01:23.326Z,9.77
2018-12-24T22:03:49.924Z,9.84
2018-12-24T22:06:16.075Z,9.83
2018-12-24T22:08:42.152Z,9.76
2018-12-24T22:11:08.250Z,9.90
2018-12-24T22:13:35.617Z,9.90
2018-12-24T22:16:02.406Z,9.83
2018-12-24T22:18:32.289Z,10.05
2018-12-24T22:20:59.018Z,9.64
2018-12-24T22:23:25.057Z,9.74
2018-12-24T22:25:51.295Z,9.75
2018-12-24T22:28:17.440Z,9.68
2018-12-24T22:30:46.823Z,9.63
2018-12-24T22:33:14.672Z,9.81
2018-12-24T22:35:40.867Z,10.46
2018-12-24T22:38:07.088Z,10.33
2018-12-24T22:40:33.370Z,10.09
2018-12-24T22:43:00.080Z,10.02
2018-12-24T22:45:26.499Z,9.90
2018-12-24T22:47:52.893Z,9.88
2018-12-24T22:50:21.061Z,9.98
2018-12-24T22:52:47.182Z,10.06
2018-12-24T22:55:13.238Z,9.80
2018-12-24T22:57:39.474Z,9.65
2018-12-24T23:00:05.768Z,9.85
2018-12-24T23:02:31.797Z,9.88
2018-12-24T23:04:57.961Z,9.97
2018-12-24T23:07:24.046Z,9.92
2018-12-24T23:09:50.123Z,9.94
2018-12-24T23:12:16.191Z,9.99
2018-12-24T23:14:42.815Z,9.80
2018-12-24T23:17:08.896Z,9.85
2018-12-24T23:19:35.034Z,9.93
2018-12-24T23:22:01.286Z,9.93
2018-12-24T23:24:27.396Z,10.24
2018-12-24T23:26:53.489Z,10.25
2018-12-24T23:29:19.614Z,9.88
2018-12-24T23:31:45.987Z,10.02
2018-12-24T23:34:12.533Z,10.18
2018-12-24T23:39:10.368Z,10.00
2018-12-24T23:41:36.510Z,10.23
2018-12-24T23:44:12.904Z,10.42
2018-12-24T23:46:38.946Z,10.43
2018-12-24T23:49:05.102Z,10.21
2018-12-24T23:51:31.162Z,9.98
2018-12-24T23:53:57.209Z,9.74
2018-12-24T23:56:23.563Z,9.75
2018-12-24T23:58:49.726Z,9.87
